Time;durP1;ratioP1;P1;durP2;ratioP2;P2;SDS_P1;SDS_P2;PMS_P1;PMS_P2;Temp;Humidity;BMP_temperature;BMP_pressure;BME280_temperature;BME280_humidity;BME280_pressure;Samples;Min_cycle;Max_cycle;Signal;HPM_P1;HPM_P2
2022/03/27 00:00:05;;;;;;;38.35;18.85;;;;;;;;;;4935049;29;20421;-67
2022/03/27 00:02:32;;;;;;;38.03;18.00;;;;;;;;;;4934696;29;20073;-68
2022/03/27 00:04:59;;;;;;;34.17;18.67;;;;;;;;;;4934758;29;20555;-67
2022/03/27 00:07:26;;;;;;;32.67;17.80;;;;;;;;;;4934674;29;20056;-67
2022/03/27 00:09:52;;;;;;;36.47;19.35;;;;;;;;;;4934963;29;20138;-67
2022/03/27 00:12:21;;;;;;;36.58;21.30;;;;;;;;;;4936033;29;20070;-67
2022/03/27 00:14:48;;;;;;;35.63;20.13;;;;;;;;;;4938452;29;20103;-67
2022/03/27 00:17:15;;;;;;;33.10;17.83;;;;;;;;;;4938826;29;20051;-67
2022/03/27 00:19:42;;;;;;;30.27;16.60;;;;;;;;;;4938368;29;20062;-67
2022/03/27 00:22:09;;;;;;;35.42;19.00;;;;;;;;;;4938582;29;20059;-67
2022/03/27 00:24:36;;;;;;;32.38;17.52;;;;;;;;;;4938448;29;20058;-68
2022/03/27 00:27:03;;;;;;;33.28;18.02;;;;;;;;;;4938364;29;20063;-67
2022/03/27 00:29:31;;;;;;;33.22;17.05;;;;;;;;;;4938391;29;20056;-66
2022/03/27 00:31:58;;;;;;;34.75;18.75;;;;;;;;;;4938576;29;20489;-67
2022/03/27 00:34:27;;;;;;;30.98;18.20;;;;;;;;;;4938400;29;20394;-67
2022/03/27 00:36:54;;;;;;;35.45;17.83;;;;;;;;;;4938304;29;20055;-67
2022/03/27 00:39:20;;;;;;;34.75;18.92;;;;;;;;;;4938160;29;20048;-67
2022/03/27 00:41:49;;;;;;;35.17;18.00;;;;;;;;;;4938236;29;20052;-67
2022/03/27 00:44:16;;;;;;;29.58;17.00;;;;;;;;;;4938438;29;20142;-67
2022/03/27 00:46:44;;;;;;;32.50;17.45;;;;;;;;;;4938218;29;20044;-67
2022/03/27 00:49:11;;;;;;;34.38;18.63;;;;;;;;;;4938092;29;20500;-67
2022/03/27 00:51:39;;;;;;;34.45;18.67;;;;;;;;;;4938229;29;20131;-67
2022/03/27 00:54:06;;;;;;;35.33;18.33;;;;;;;;;;4937844;29;20047;-66
2022/03/27 00:56:33;;;;;;;34.10;17.73;;;;;;;;;;4937713;29;20043;-66
2022/03/27 00:59:00;;;;;;;36.55;19.27;;;;;;;;;;4937790;29;20509;-67
2022/03/27 01:01:35;;;;;;;34.92;18.90;;;;;;;;;;4937832;29;20525;-67
2022/03/27 01:04:03;;;;;;;35.25;18.42;;;;;;;;;;4937696;29;20063;-67
2022/03/27 01:06:33;;;;;;;30.95;17.95;;;;;;;;;;4937593;29;20074;-67
2022/03/27 01:11:46;;;;;;;34.78;18.58;;;;;;;;;;4938154;29;20176;-67
2022/03/27 01:14:14;;;;;;;36.30;18.88;;;;;;;;;;4937759;29;20571;-67
2022/03/27 01:16:42;;;;;;;37.70;19.33;;;;;;;;;;4937681;29;20416;-67
2022/03/27 01:19:13;;;;;;;37.15;20.95;;;;;;;;;;4937448;29;20062;-67
2022/03/27 01:21:43;;;;;;;36.45;18.67;;;;;;;;;;4937779;29;20099;-67
2022/03/27 01:24:11;;;;;;;35.17;19.10;;;;;;;;;;4936328;29;20134;-67
2022/03/27 01:26:39;;;;;;;34.25;18.70;;;;;;;;;;4937255;29;20054;-67
2022/03/27 01:29:07;;;;;;;36.40;18.65;;;;;;;;;;4937368;29;20489;-67
2022/03/27 01:31:34;;;;;;;35.28;18.08;;;;;;;;;;4937287;29;20052;-67
2022/03/27 01:34:01;;;;;;;33.20;18.33;;;;;;;;;;4937172;29;20058;-67
2022/03/27 01:36:34;;;;;;;33.67;18.70;;;;;;;;;;4937049;29;20051;-67
2022/03/27 01:39:05;;;;;;;34.58;18.25;;;;;;;;;;4937116;29;20158;-67
2022/03/27 01:41:32;;;;;;;32.50;19.15;;;;;;;;;;4937181;29;20058;-68
2022/03/27 01:43:59;;;;;;;37.83;20.77;;;;;;;;;;4936987;29;20059;-67
2022/03/27 01:46:27;;;;;;;36.33;19.98;;;;;;;;;;4918180;29;20568;-67
2022/03/27 01:48:53;;;;;;;35.25;20.40;;;;;;;;;;4917838;29;20052;-67
2022/03/27 01:51:20;;;;;;;35.25;20.15;;;;;;;;;;4917909;29;20565;-67
2022/03/27 01:53:47;;;;;;;37.85;19.58;;;;;;;;;;4917872;29;20052;-67
2022/03/27 01:56:16;;;;;;;35.55;19.90;;;;;;;;;;4917786;29;20058;-67
2022/03/27 01:58:43;;;;;;;35.13;19.58;;;;;;;;;;4917667;29;20054;-67
2022/03/27 02:01:10;;;;;;;32.03;19.10;;;;;;;;;;4917781;29;20058;-67
2022/03/27 02:03:37;;;;;;;36.85;19.60;;;;;;;;;;4917936;29;20052;-67
2022/03/27 02:06:05;;;;;;;33.28;18.33;;;;;;;;;;4917642;29;20055;-67
2022/03/27 02:08:32;;;;;;;33.03;19.48;;;;;;;;;;4917736;29;20063;-67
2022/03/27 02:10:59;;;;;;;37.22;19.88;;;;;;;;;;4917859;29;20056;-67
2022/03/27 02:13:27;;;;;;;33.78;18.83;;;;;;;;;;4917529;29;20056;-67
2022/03/27 02:15:57;;;;;;;33.67;20.63;;;;;;;;;;4917322;29;20048;-67
2022/03/27 02:18:26;;;;;;;36.50;21.60;;;;;;;;;;4917685;29;20437;-67
2022/03/27 02:20:54;;;;;;;40.05;22.55;;;;;;;;;;4917405;29;20661;-67
2022/03/27 02:23:21;;;;;;;41.67;24.38;;;;;;;;;;4917364;29;20112;-67
2022/03/27 02:25:48;;;;;;;35.20;21.88;;;;;;;;;;4917353;29;20063;-67
2022/03/27 02:28:15;;;;;;;35.70;21.15;;;;;;;;;;4917114;29;20059;-67
2022/03/27 02:30:44;;;;;;;42.25;23.02;;;;;;;;;;4917332;29;20055;-65
2022/03/27 02:33:11;;;;;;;42.13;22.63;;;;;;;;;;4917388;29;20059;-66
2022/03/27 02:35:38;;;;;;;39.15;21.65;;;;;;;;;;4916887;29;20505;-66
2022/03/27 02:38:06;;;;;;;39.38;22.27;;;;;;;;;;4916872;29;20102;-67
2022/03/27 02:40:34;;;;;;;41.47;22.85;;;;;;;;;;4916873;29;20044;-67
2022/03/27 02:43:01;;;;;;;39.85;23.02;;;;;;;;;;4917429;29;20056;-66
2022/03/27 02:45:28;;;;;;;37.42;22.58;;;;;;;;;;4939819;29;20050;-67
2022/03/27 02:47:57;;;;;;;38.42;22.10;;;;;;;;;;4955540;29;20054;-66
2022/03/27 02:50:24;;;;;;;40.28;21.83;;;;;;;;;;4955215;29;20062;-66
2022/03/27 02:52:52;;;;;;;39.13;21.67;;;;;;;;;;4955209;29;20053;-66
2022/03/27 02:55:19;;;;;;;40.00;23.40;;;;;;;;;;4954914;28;20058;-67
2022/03/27 02:57:46;;;;;;;39.28;23.02;;;;;;;;;;4955149;29;20054;-67
2022/03/27 03:00:14;;;;;;;38.20;21.67;;;;;;;;;;4954689;28;20043;-67
2022/03/27 03:02:41;;;;;;;35.55;21.13;;;;;;;;;;4954819;29;20485;-67
2022/03/27 03:05:10;;;;;;;36.42;21.65;;;;;;;;;;4954683;29;20417;-66
2022/03/27 03:07:41;;;;;;;39.88;22.35;;;;;;;;;;4954718;29;20051;-66
2022/03/27 03:10:09;;;;;;;40.67;23.23;;;;;;;;;;4954596;29;20055;-66
2022/03/27 03:12:36;;;;;;;37.88;21.77;;;;;;;;;;4954718;28;20055;-66
2022/03/27 03:15:04;;;;;;;41.17;22.52;;;;;;;;;;4954569;29;20408;-66
2022/03/27 03:17:31;;;;;;;39.60;22.92;;;;;;;;;;4954558;28;20047;-66
2022/03/27 03:19:58;;;;;;;39.28;22.58;;;;;;;;;;4954585;29;20047;-66
2022/03/27 03:22:27;;;;;;;41.58;22.15;;;;;;;;;;4954582;29;20122;-66
2022/03/27 03:24:54;;;;;;;35.05;20.48;;;;;;;;;;4954046;29;20111;-66
2022/03/27 03:27:21;;;;;;;34.75;20.25;;;;;;;;;;4954353;29;20047;-66
2022/03/27 03:29:48;;;;;;;36.22;19.75;;;;;;;;;;4954433;29;20059;-66
2022/03/27 03:32:15;;;;;;;35.13;19.88;;;;;;;;;;4954545;29;20043;-66
2022/03/27 03:34:42;;;;;;;40.03;22.45;;;;;;;;;;4954133;29;20095;-66
2022/03/27 03:37:09;;;;;;;38.50;22.33;;;;;;;;;;4954170;29;20137;-66
2022/03/27 03:39:38;;;;;;;33.22;19.45;;;;;;;;;;4953947;29;20051;-66
2022/03/27 03:42:06;;;;;;;35.78;20.85;;;;;;;;;;4954361;28;20043;-67
2022/03/27 03:44:33;;;;;;;35.50;19.83;;;;;;;;;;4950115;29;20134;-66
2022/03/27 03:46:59;;;;;;;36.30;20.10;;;;;;;;;;4934272;29;20066;-67
2022/03/27 03:49:26;;;;;;;37.53;20.58;;;;;;;;;;4934976;29;20417;-67
2022/03/27 03:51:54;;;;;;;35.17;20.25;;;;;;;;;;4934822;29;20059;-67
2022/03/27 03:54:21;;;;;;;34.78;19.92;;;;;;;;;;4934888;29;20056;-67
2022/03/27 03:56:49;;;;;;;37.13;19.42;;;;;;;;;;4934820;29;20050;-67
2022/03/27 03:59:16;;;;;;;35.03;19.33;;;;;;;;;;4934695;29;20048;-66
2022/03/27 04:01:43;;;;;;;39.28;21.45;;;;;;;;;;4935724;29;20048;-66
2022/03/27 04:04:10;;;;;;;37.10;20.73;;;;;;;;;;4935487;29;20050;-66
2022/03/27 04:06:37;;;;;;;36.65;20.73;;;;;;;;;;4934875;29;20047;-66
2022/03/27 04:09:04;;;;;;;32.75;19.33;;;;;;;;;;4934802;29;20421;-66
2022/03/27 04:11:31;;;;;;;33.00;20.67;;;;;;;;;;4935127;29;20048;-65
2022/03/27 04:13:59;;;;;;;33.72;20.38;;;;;;;;;;4934726;29;20131;-66
2022/03/27 04:16:26;;;;;;;39.20;20.85;;;;;;;;;;4934597;29;20063;-66
2022/03/27 04:18:53;;;;;;;38.22;21.70;;;;;;;;;;4934711;29;20044;-66
2022/03/27 04:21:20;;;;;;;46.25;26.77;;;;;;;;;;4934666;29;20051;-66
2022/03/27 04:23:48;;;;;;;44.63;26.50;;;;;;;;;;4934868;29;20047;-66
2022/03/27 04:26:15;;;;;;;34.53;19.02;;;;;;;;;;4934479;29;20052;-66
2022/03/27 04:28:43;;;;;;;37.10;20.00;;;;;;;;;;4933274;29;20059;-66
2022/03/27 04:31:11;;;;;;;38.17;19.40;;;;;;;;;;4934502;29;20047;-65
2022/03/27 04:33:38;;;;;;;32.47;19.38;;;;;;;;;;4935055;29;20055;-66
2022/03/27 04:36:06;;;;;;;32.53;20.05;;;;;;;;;;4934080;29;20155;-66
2022/03/27 04:38:33;;;;;;;37.17;20.17;;;;;;;;;;4934625;29;20054;-66
2022/03/27 04:41:00;;;;;;;37.25;20.55;;;;;;;;;;4934226;29;20043;-66
2022/03/27 04:43:27;;;;;;;34.22;20.35;;;;;;;;;;4934670;29;20051;-66
2022/03/27 04:45:54;;;;;;;34.78;19.55;;;;;;;;;;4948981;29;20059;-66
2022/03/27 04:48:22;;;;;;;37.00;21.77;;;;;;;;;;4953605;29;20066;-66
2022/03/27 04:50:49;;;;;;;40.25;21.45;;;;;;;;;;4953525;28;20051;-67
2022/03/27 04:53:16;;;;;;;34.83;21.30;;;;;;;;;;4953779;29;20047;-66
2022/03/27 04:55:43;;;;;;;34.45;20.35;;;;;;;;;;4953763;29;20081;-67
2022/03/27 04:58:11;;;;;;;34.60;19.70;;;;;;;;;;4954734;28;20055;-67
2022/03/27 05:00:38;;;;;;;33.85;20.45;;;;;;;;;;4957017;28;20416;-67
2022/03/27 05:03:06;;;;;;;36.42;20.50;;;;;;;;;;4956839;29;20047;-67
2022/03/27 05:05:34;;;;;;;38.88;22.88;;;;;;;;;;4956867;29;20472;-66
2022/03/27 05:08:01;;;;;;;41.60;23.02;;;;;;;;;;4956767;28;20057;-67
2022/03/27 05:10:28;;;;;;;36.10;20.98;;;;;;;;;;4956785;29;20051;-67
2022/03/27 05:12:56;;;;;;;35.00;21.40;;;;;;;;;;4957243;29;20062;-70
2022/03/27 05:15:23;;;;;;;36.65;21.27;;;;;;;;;;4956768;28;20086;-67
2022/03/27 05:17:53;;;;;;;40.40;22.02;;;;;;;;;;4956747;28;20043;-67
2022/03/27 05:20:20;;;;;;;34.40;20.17;;;;;;;;;;4956305;29;20150;-67
2022/03/27 05:22:49;;;;;;;32.13;19.52;;;;;;;;;;4956738;29;20090;-67
2022/03/27 05:25:17;;;;;;;33.97;20.45;;;;;;;;;;4956517;29;20073;-67
2022/03/27 05:27:45;;;;;;;36.28;19.77;;;;;;;;;;4956383;28;20051;-67
2022/03/27 05:30:12;;;;;;;35.47;20.90;;;;;;;;;;4956355;29;20051;-67
2022/03/27 05:32:39;;;;;;;34.97;20.55;;;;;;;;;;4956485;28;20152;-66
2022/03/27 05:35:07;;;;;;;36.78;20.48;;;;;;;;;;4956211;29;20050;-68
2022/03/27 05:37:39;;;;;;;31.15;19.05;;;;;;;;;;4956312;29;20057;-67
2022/03/27 05:40:09;;;;;;;38.28;19.52;;;;;;;;;;4956142;28;20047;-67
2022/03/27 05:42:37;;;;;;;33.33;19.98;;;;;;;;;;4956423;29;20047;-68
2022/03/27 05:45:05;;;;;;;33.47;19.45;;;;;;;;;;4947653;29;20052;-67
2022/03/27 05:47:32;;;;;;;32.70;20.15;;;;;;;;;;4936891;29;20047;-68
2022/03/27 05:50:00;;;;;;;38.60;20.83;;;;;;;;;;4936888;29;20131;-67
2022/03/27 05:52:27;;;;;;;38.47;19.90;;;;;;;;;;4936764;29;20047;-67
2022/03/27 05:54:54;;;;;;;35.13;19.95;;;;;;;;;;4936804;29;20056;-68
2022/03/27 05:57:23;;;;;;;33.55;20.10;;;;;;;;;;4936766;29;20047;-67
2022/03/27 05:59:50;;;;;;;36.97;20.42;;;;;;;;;;4936848;29;20048;-67
2022/03/27 06:02:17;;;;;;;40.58;21.35;;;;;;;;;;4936579;29;20048;-66
2022/03/27 06:04:44;;;;;;;35.35;20.52;;;;;;;;;;4936567;29;20060;-65
2022/03/27 06:07:11;;;;;;;33.22;20.30;;;;;;;;;;4936635;29;20147;-67
2022/03/27 06:09:39;;;;;;;34.35;20.05;;;;;;;;;;4935859;29;20060;-67
2022/03/27 06:12:07;;;;;;;35.50;21.00;;;;;;;;;;4936938;29;20047;-68
2022/03/27 06:14:35;;;;;;;33.67;20.17;;;;;;;;;;4936505;29;20511;-68
2022/03/27 06:17:03;;;;;;;35.55;20.67;;;;;;;;;;4936421;29;20224;-69
2022/03/27 06:19:30;;;;;;;38.28;21.27;;;;;;;;;;4936335;29;20063;-66
2022/03/27 06:21:58;;;;;;;34.85;20.60;;;;;;;;;;4936438;29;20058;-67
2022/03/27 06:24:25;;;;;;;38.85;21.80;;;;;;;;;;4936305;29;20073;-67
2022/03/27 06:26:52;;;;;;;37.13;21.15;;;;;;;;;;4936160;29;20051;-67
2022/03/27 06:29:21;;;;;;;40.28;21.17;;;;;;;;;;4936173;29;20070;-67
2022/03/27 06:31:49;;;;;;;36.42;22.35;;;;;;;;;;4936310;29;20056;-69
2022/03/27 06:34:17;;;;;;;41.97;22.10;;;;;;;;;;4936139;29;20051;-67
2022/03/27 06:36:44;;;;;;;36.92;21.45;;;;;;;;;;4936143;29;20060;-67
2022/03/27 06:39:12;;;;;;;36.83;20.85;;;;;;;;;;4936397;29;20146;-68
2022/03/27 06:41:39;;;;;;;32.88;19.10;;;;;;;;;;4935952;29;20457;-67
2022/03/27 06:44:06;;;;;;;28.65;18.00;;;;;;;;;;4936970;29;20414;-67
2022/03/27 06:46:33;;;;;;;31.15;17.88;;;;;;;;;;4955351;29;20057;-67
2022/03/27 06:49:02;;;;;;;30.42;17.42;;;;;;;;;;4955202;28;20059;-66
2022/03/27 06:51:29;;;;;;;29.67;17.15;;;;;;;;;;4955260;29;20083;-66
2022/03/27 06:53:56;;;;;;;30.08;18.10;;;;;;;;;;4955646;29;20448;-68
2022/03/27 06:56:23;;;;;;;30.15;18.67;;;;;;;;;;4954513;29;20051;-67
2022/03/27 06:58:50;;;;;;;30.35;19.05;;;;;;;;;;4955089;29;20055;-66
2022/03/27 07:04:02;;;;;;;30.27;17.58;;;;;;;;;;4954817;29;20077;-68
2022/03/27 07:06:29;;;;;;;26.90;15.93;;;;;;;;;;4954773;29;20058;-67
2022/03/27 07:08:56;;;;;;;27.02;16.38;;;;;;;;;;4954616;29;20504;-68
2022/03/27 07:11:23;;;;;;;27.63;16.50;;;;;;;;;;4954456;29;20069;-68
2022/03/27 07:13:50;;;;;;;28.73;16.83;;;;;;;;;;4954628;29;20053;-68
2022/03/27 07:16:17;;;;;;;27.55;16.45;;;;;;;;;;4954423;29;20055;-66
2022/03/27 07:18:49;;;;;;;30.95;16.27;;;;;;;;;;4954315;29;20053;-67
2022/03/27 07:21:18;;;;;;;31.05;17.35;;;;;;;;;;4953528;28;20059;-66
2022/03/27 07:23:46;;;;;;;27.23;16.50;;;;;;;;;;4954588;29;20055;-66
2022/03/27 07:26:13;;;;;;;27.15;16.10;;;;;;;;;;4954269;29;20532;-68
2022/03/27 07:28:40;;;;;;;28.35;14.98;;;;;;;;;;4954311;29;20055;-67
2022/03/27 07:31:07;;;;;;;27.48;17.35;;;;;;;;;;4954409;29;20051;-67
2022/03/27 07:33:34;;;;;;;28.08;16.77;;;;;;;;;;4954062;29;20114;-68
2022/03/27 07:36:01;;;;;;;29.23;17.10;;;;;;;;;;4954034;29;20047;-66
2022/03/27 07:38:29;;;;;;;29.02;16.88;;;;;;;;;;4954052;29;20058;-66
2022/03/27 07:40:56;;;;;;;27.90;15.60;;;;;;;;;;4954033;29;20053;-67
2022/03/27 07:43:23;;;;;;;27.35;15.40;;;;;;;;;;4954041;29;20047;-68
2022/03/27 07:45:50;;;;;;;26.48;16.00;;;;;;;;;;4939877;29;20520;-66
2022/03/27 07:48:17;;;;;;;26.20;15.75;;;;;;;;;;4934899;29;20071;-67
2022/03/27 07:50:46;;;;;;;26.88;16.23;;;;;;;;;;4934510;29;20047;-70
2022/03/27 07:53:13;;;;;;;30.40;16.63;;;;;;;;;;4934765;29;20062;-67
2022/03/27 07:55:41;;;;;;;30.58;15.77;;;;;;;;;;4934868;29;20051;-67
2022/03/27 07:58:08;;;;;;;25.58;14.75;;;;;;;;;;4934970;29;20547;-67
2022/03/27 08:00:35;;;;;;;26.67;14.73;;;;;;;;;;4934779;29;20138;-67
2022/03/27 08:03:02;;;;;;;25.77;15.07;;;;;;;;;;4934521;29;20090;-67
2022/03/27 08:05:30;;;;;;;25.42;15.63;;;;;;;;;;4934847;29;20048;-67
2022/03/27 08:07:57;;;;;;;25.17;13.93;;;;;;;;;;4934680;29;20051;-67
2022/03/27 08:10:24;;;;;;;24.13;14.30;;;;;;;;;;4934813;29;20055;-66
2022/03/27 08:12:52;;;;;;;24.77;14.68;;;;;;;;;;4934675;29;20079;-66
2022/03/27 08:15:20;;;;;;;27.48;15.07;;;;;;;;;;4934622;29;20127;-67
2022/03/27 08:17:49;;;;;;;23.15;14.85;;;;;;;;;;4934240;29;20063;-67
2022/03/27 08:20:16;;;;;;;23.80;14.60;;;;;;;;;;4934927;29;20172;-69
2022/03/27 08:22:43;;;;;;;25.58;14.90;;;;;;;;;;4934599;29;20044;-68
2022/03/27 08:26:55;;;;;;;25.73;15.23;;;;;;;;;;4934692;29;20050;-67
2022/03/27 08:27:58;;;;;;;27.10;15.68;;;;;;;;;;4934390;29;20481;-69
2022/03/27 08:30:25;;;;;;;27.00;16.20;;;;;;;;;;4934766;29;20055;-67
2022/03/27 08:32:52;;;;;;;26.75;15.13;;;;;;;;;;4935142;29;20127;-67
2022/03/27 08:35:19;;;;;;;26.83;15.32;;;;;;;;;;4938499;29;20047;-66
2022/03/27 08:37:46;;;;;;;23.48;14.60;;;;;;;;;;4938136;29;20425;-68
2022/03/27 08:40:15;;;;;;;27.48;15.05;;;;;;;;;;4938278;29;20052;-68
2022/03/27 08:42:42;;;;;;;26.45;15.13;;;;;;;;;;4938514;29;20058;-68
2022/03/27 08:45:11;;;;;;;23.02;13.60;;;;;;;;;;4943557;29;20051;-67
2022/03/27 08:47:40;;;;;;;25.55;14.00;;;;;;;;;;4945945;29;20067;-67
2022/03/27 08:50:14;;;;;;;24.15;14.50;;;;;;;;;;4938427;29;20083;-67
2022/03/27 08:52:53;;;;;;;26.13;13.60;;;;;;;;;;4938158;29;20414;-66
2022/03/27 08:55:23;;;;;;;27.33;15.63;;;;;;;;;;4940509;29;20055;-66
2022/03/27 08:57:57;;;;;;;;;;;;;;;;;;4957824;29;20417;-67
2022/03/27 09:00:28;;;;;;;25.13;15.35;;;;;;;;;;4957353;28;19929;-67
2022/03/27 09:02:56;;;;;;;26.27;16.23;;;;;;;;;;4956889;28;20058;-67
2022/03/27 09:05:24;;;;;;;26.70;15.38;;;;;;;;;;4956995;29;20058;-66
2022/03/27 09:07:51;;;;;;;27.48;16.17;;;;;;;;;;4956635;28;20047;-68
2022/03/27 09:10:18;;;;;;;25.80;15.50;;;;;;;;;;4956769;29;20051;-69
2022/03/27 09:12:46;;;;;;;25.50;16.00;;;;;;;;;;4956847;29;20051;-68
2022/03/27 09:15:17;;;;;;;28.80;15.32;;;;;;;;;;4956980;29;20043;-68
2022/03/27 09:18:03;;;;;;;24.92;14.52;;;;;;;;;;4957111;29;20051;-66
2022/03/27 09:20:32;;;;;;;27.63;15.25;;;;;;;;;;4957657;29;20497;-66
2022/03/27 09:23:08;;;;;;;26.48;14.55;;;;;;;;;;4956982;28;20051;-66
2022/03/27 09:25:44;;;;;;;24.83;13.85;;;;;;;;;;4957069;29;20058;-67
2022/03/27 09:28:12;;;;;;;27.58;15.20;;;;;;;;;;4957229;29;20176;-67
2022/03/27 09:30:38;;;;;;;27.10;16.27;;;;;;;;;;4956703;29;20055;-69
2022/03/27 09:33:07;;;;;;;28.83;15.15;;;;;;;;;;4956880;29;20055;-68
2022/03/27 09:35:36;;;;;;;24.75;13.75;;;;;;;;;;4957071;29;20055;-66
2022/03/27 09:38:13;;;;;;;29.00;16.77;;;;;;;;;;4956463;29;20105;-69
2022/03/27 09:40:40;;;;;;;28.20;14.77;;;;;;;;;;4956325;29;20047;-66
2022/03/27 09:43:12;;;;;;;25.70;14.27;;;;;;;;;;4956249;29;20152;-67
2022/03/27 09:45:39;;;;;;;30.40;17.27;;;;;;;;;;4955094;28;20095;-69
2022/03/27 09:48:10;;;;;;;28.58;15.48;;;;;;;;;;4956179;29;20086;-68
2022/03/27 09:50:40;;;;;;;26.75;14.35;;;;;;;;;;4956235;28;20051;-67
2022/03/27 09:53:25;;;;;;;29.23;14.93;;;;;;;;;;4956321;29;20055;-67
2022/03/27 09:56:12;;;;;;;26.95;14.60;;;;;;;;;;4956428;28;20055;-68
2022/03/27 09:58:40;;;;;;;29.00;15.02;;;;;;;;;;4956014;29;20370;-66
2022/03/27 10:01:12;;;;;;;26.65;13.80;;;;;;;;;;4956203;28;20130;-68
2022/03/27 10:03:57;;;;;;;25.35;14.70;;;;;;;;;;4955841;29;20515;-68
2022/03/27 10:06:32;;;;;;;28.83;14.63;;;;;;;;;;4955740;29;20054;-69
2022/03/27 10:09:00;;;;;;;27.15;15.30;;;;;;;;;;4955696;28;20062;-67
2022/03/27 10:11:29;;;;;;;27.50;14.32;;;;;;;;;;4955914;29;20170;-66
2022/03/27 10:13:56;;;;;;;24.92;15.07;;;;;;;;;;4955676;29;20073;-67
2022/03/27 10:16:26;;;;;;;25.60;15.38;;;;;;;;;;4955418;28;20053;-67
2022/03/27 10:19:02;;;;;;;27.45;15.65;;;;;;;;;;4955759;28;20063;-67
2022/03/27 10:21:30;;;;;;;29.30;15.80;;;;;;;;;;4955598;29;20047;-67
2022/03/27 10:24:12;;;;;;;25.25;15.13;;;;;;;;;;4955596;28;20047;-67
2022/03/27 10:26:40;;;;;;;28.63;16.58;;;;;;;;;;4955403;28;20053;-66
2022/03/27 10:29:08;;;;;;;28.35;15.75;;;;;;;;;;4955265;29;20150;-68
2022/03/27 10:31:35;;;;;;;28.38;14.82;;;;;;;;;;4955707;29;20044;-68
2022/03/27 10:34:06;;;;;;;26.13;14.43;;;;;;;;;;4955476;29;20043;-68
2022/03/27 10:36:40;;;;;;;;;;;;;;;;;;4955754;29;20051;-67
2022/03/27 10:39:15;;;;;;;25.17;13.85;;;;;;;;;;4955683;29;20380;-68
2022/03/27 10:41:50;;;;;;;25.55;15.35;;;;;;;;;;4955560;29;20061;-67
2022/03/27 10:44:27;;;;;;;27.40;14.60;;;;;;;;;;4953648;28;20051;-67
2022/03/27 10:47:12;;;;;;;25.83;14.32;;;;;;;;;;4936269;29;20055;-68
2022/03/27 10:49:42;;;;;;;27.20;15.05;;;;;;;;;;4939120;29;20048;-67
2022/03/27 10:52:10;;;;;;;27.63;14.80;;;;;;;;;;4935992;29;20055;-67
2022/03/27 10:54:57;;;;;;;24.15;14.25;;;;;;;;;;4935740;29;20047;-66
2022/03/27 10:57:32;;;;;;;26.75;14.88;;;;;;;;;;4935663;29;20052;-67
2022/03/27 10:59:59;;;;;;;24.75;14.57;;;;;;;;;;4935689;29;20051;-67
2022/03/27 11:02:46;;;;;;;25.13;13.75;;;;;;;;;;4949015;23;20054;-74
2022/03/27 11:05:50;;;;;;;25.90;14.10;;;;;;;;;;4937044;29;20051;-73
2022/03/27 11:08:49;;;;;;;24.58;14.00;;;;;;;;;;4936985;29;20067;-73
2022/03/27 11:11:56;;;;;;;25.52;14.18;;;;;;;;;;4916228;29;20067;-73
2022/03/27 11:14:46;;;;;;;23.80;13.95;;;;;;;;;;4918030;29;20398;-73
2022/03/27 11:17:14;;;;;;;26.53;14.87;;;;;;;;;;4918191;29;20083;-73
2022/03/27 11:19:43;;;;;;;26.55;14.75;;;;;;;;;;4918215;29;20054;-73
2022/03/27 11:22:42;;;;;;;27.02;14.55;;;;;;;;;;4917745;29;20087;-75
2022/03/27 11:25:32;;;;;;;24.05;13.15;;;;;;;;;;4918626;29;20051;-73
2022/03/27 11:28:07;;;;;;;25.70;14.55;;;;;;;;;;4919276;29;20543;-73
2022/03/27 11:30:36;;;;;;;25.63;14.35;;;;;;;;;;4918507;29;20052;-74
2022/03/27 11:33:18;;;;;;;23.63;14.05;;;;;;;;;;4919393;29;20056;-73
2022/03/27 11:36:18;;;;;;;24.77;15.30;;;;;;;;;;4918155;29;20147;-73
2022/03/27 11:39:02;;;;;;;24.77;15.60;;;;;;;;;;4917513;29;20422;-73
2022/03/27 11:41:38;;;;;;;23.35;13.10;;;;;;;;;;4918211;29;20062;-72
2022/03/27 11:44:23;;;;;;;30.30;14.88;;;;;;;;;;4917567;29;20075;-73
2022/03/27 11:46:52;;;;;;;25.55;13.82;;;;;;;;;;4918106;29;20119;-73
2022/03/27 11:49:20;;;;;;;25.15;15.10;;;;;;;;;;4918033;29;20052;-73
2022/03/27 11:51:48;;;;;;;26.35;14.80;;;;;;;;;;4918339;29;20086;-73
2022/03/27 11:54:20;;;;;;;26.30;14.88;;;;;;;;;;4917630;29;20144;-73
2022/03/27 11:56:57;;;;;;;26.08;14.75;;;;;;;;;;4918091;29;20052;-74
2022/03/27 11:59:26;;;;;;;23.52;14.75;;;;;;;;;;4917812;29;20471;-74
2022/03/27 12:01:54;;;;;;;24.10;14.60;;;;;;;;;;4917774;29;20587;-74
2022/03/27 12:04:21;;;;;;;23.48;14.00;;;;;;;;;;4917392;29;20143;-74
2022/03/27 12:06:55;;;;;;;25.70;14.27;;;;;;;;;;4917127;29;20498;-72
2022/03/27 12:09:29;;;;;;;23.80;13.85;;;;;;;;;;4923383;29;20056;-73
2022/03/27 12:12:10;;;;;;;22.70;13.25;;;;;;;;;;4923657;29;20064;-72
2022/03/27 12:14:56;;;;;;;23.20;14.90;;;;;;;;;;4923314;29;20145;-74
2022/03/27 12:17:24;;;;;;;24.40;14.20;;;;;;;;;;4923040;29;20052;-73
2022/03/27 12:19:58;;;;;;;24.10;15.20;;;;;;;;;;4922011;29;20055;-72
2022/03/27 12:22:37;;;;;;;24.50;14.30;;;;;;;;;;4922826;29;20139;-75
2022/03/27 12:25:07;;;;;;;22.88;13.23;;;;;;;;;;4922433;29;20052;-73
2022/03/27 12:30:20;;;;;;;27.73;13.63;;;;;;;;;;4923336;29;20070;-73
2022/03/27 12:32:48;;;;;;;26.13;15.23;;;;;;;;;;4922902;29;20454;-72
2022/03/27 12:35:22;;;;;;;24.73;15.50;;;;;;;;;;4922425;29;20052;-70
2022/03/27 12:37:49;;;;;;;21.30;12.77;;;;;;;;;;4923528;29;20143;-72
2022/03/27 12:40:16;;;;;;;22.65;12.60;;;;;;;;;;4922800;29;20539;-71
2022/03/27 12:42:46;;;;;;;23.40;13.65;;;;;;;;;;4923063;29;20139;-73
2022/03/27 12:45:17;;;;;;;21.90;13.40;;;;;;;;;;4922955;29;20048;-71
2022/03/27 12:47:47;;;;;;;22.77;13.52;;;;;;;;;;4923099;29;20060;-70
2022/03/27 12:50:16;;;;;;;25.17;13.75;;;;;;;;;;4922880;29;20051;-72
2022/03/27 12:52:54;;;;;;;22.95;13.73;;;;;;;;;;4922695;29;20111;-72
2022/03/27 12:55:21;;;;;;;23.35;12.98;;;;;;;;;;4922686;29;20054;-72
2022/03/27 12:57:55;;;;;;;21.67;13.20;;;;;;;;;;4922930;29;20048;-71
2022/03/27 13:00:24;;;;;;;21.95;13.05;;;;;;;;;;4922587;29;20052;-72
2022/03/27 13:03:08;;;;;;;20.48;12.95;;;;;;;;;;4922125;29;20056;-70
2022/03/27 13:05:35;;;;;;;19.50;13.25;;;;;;;;;;4922396;29;20497;-71
2022/03/27 13:08:02;;;;;;;21.77;12.88;;;;;;;;;;4922561;29;20055;-71
2022/03/27 13:10:30;;;;;;;20.45;13.02;;;;;;;;;;4921742;29;20060;-72
2022/03/27 13:13:00;;;;;;;20.20;12.43;;;;;;;;;;4922297;29;20136;-72
2022/03/27 13:15:42;;;;;;;21.92;12.90;;;;;;;;;;4922209;29;20544;-73
2022/03/27 13:18:12;;;;;;;24.00;12.63;;;;;;;;;;4921808;29;20417;-72
2022/03/27 13:20:39;;;;;;;19.40;12.90;;;;;;;;;;4917693;29;21039;-71
2022/03/27 13:23:08;;;;;;;21.35;12.85;;;;;;;;;;4917616;29;20417;-73
2022/03/27 13:25:36;;;;;;;21.80;12.38;;;;;;;;;;4919309;29;20502;-73
2022/03/27 13:28:06;;;;;;;21.13;13.15;;;;;;;;;;4919112;29;20461;-73
2022/03/27 13:30:34;;;;;;;21.40;12.98;;;;;;;;;;4920044;29;20099;-72
2022/03/27 13:33:02;;;;;;;18.80;12.07;;;;;;;;;;4919898;29;20148;-74
2022/03/27 13:35:29;;;;;;;21.05;11.85;;;;;;;;;;4920477;29;20516;-72
2022/03/27 13:37:57;;;;;;;25.60;16.50;;;;;;;;;;4919016;29;20063;-73
2022/03/27 13:42:57;;;;;;;19.70;12.70;;;;;;;;;;4919400;29;20055;-72
2022/03/27 13:43:14;;;;;;;21.85;13.70;;;;;;;;;;4917762;29;20582;-72
2022/03/27 13:45:41;;;;;;;19.70;12.18;;;;;;;;;;4930667;29;20359;-71
2022/03/27 13:48:10;;;;;;;18.20;11.77;;;;;;;;;;4936739;29;20058;-73
2022/03/27 13:50:37;;;;;;;20.77;12.65;;;;;;;;;;4937713;29;20055;-72
2022/03/27 13:53:05;;;;;;;17.35;11.80;;;;;;;;;;4936870;29;20584;-71
2022/03/27 13:55:32;;;;;;;16.63;11.75;;;;;;;;;;4935384;29;20052;-70
2022/03/27 13:58:01;;;;;;;17.92;12.35;;;;;;;;;;4935434;29;20146;-71
2022/03/27 14:00:33;;;;;;;17.15;11.80;;;;;;;;;;4935385;29;20052;-71
2022/03/27 14:03:00;;;;;;;17.23;12.07;;;;;;;;;;4935633;29;20060;-71
2022/03/27 14:05:27;;;;;;;18.35;11.57;;;;;;;;;;4935394;29;20051;-71
2022/03/27 14:07:55;;;;;;;20.83;13.00;;;;;;;;;;4934898;29;20063;-71
2022/03/27 14:10:23;;;;;;;17.92;11.73;;;;;;;;;;4935026;29;20056;-71
2022/03/27 14:12:51;;;;;;;17.58;12.45;;;;;;;;;;4935149;29;20114;-71
2022/03/27 14:15:18;;;;;;;17.30;11.80;;;;;;;;;;4934943;29;20044;-71
2022/03/27 14:17:48;;;;;;;16.88;11.43;;;;;;;;;;4934884;29;20051;-71
2022/03/27 14:20:15;;;;;;;;;;;;;;;;;;4935096;29;20509;-71
2022/03/27 14:22:42;;;;;;;13.88;10.02;;;;;;;;;;4934847;29;19923;-71
2022/03/27 14:25:11;;;;;;;18.02;12.35;;;;;;;;;;4934369;29;20122;-71
2022/03/27 14:27:40;;;;;;;19.20;11.07;;;;;;;;;;4934565;29;20054;-71
2022/03/27 14:30:09;;;;;;;17.60;11.30;;;;;;;;;;4935099;29;20059;-71
2022/03/27 14:32:36;;;;;;;19.13;11.63;;;;;;;;;;4934023;29;20048;-70
2022/03/27 14:35:05;;;;;;;17.65;11.52;;;;;;;;;;4934826;29;20118;-72
2022/03/27 14:37:33;;;;;;;17.63;11.38;;;;;;;;;;4934418;29;20047;-72
2022/03/27 14:40:01;;;;;;;17.67;10.98;;;;;;;;;;4934295;29;20142;-72